Time;durP1;ratioP1;P1;durP2;ratioP2;P2;SDS_P1;SDS_P2;PMS_P1;PMS_P2;Temp;Humidity;BMP_temperature;BMP_pressure;BME280_temperature;BME280_humidity;BME280_pressure;Samples;Min_cycle;Max_cycle;Signal;HPM_P1;HPM_P2
2022/01/09 00:01:46;;;;;;;;;;;;;;;4.49;63.02;99337.32;1709368;83;20150;-80
2022/01/09 00:04:11;;;;;;;;;;;;;;;4.54;62.94;99330.34;1703251;81;20155;-76
2022/01/09 00:06:37;;;;;;;;;;;;;;;4.50;62.90;99332.41;1707261;81;20152;-81
2022/01/09 00:09:02;;;;;;;;;;;;;;;4.53;63.03;99333.45;1700616;83;20142;-78
2022/01/09 00:11:28;;;;;;;;;;;;;;;4.54;62.91;99327.73;1702896;83;21972;-77
2022/01/09 00:13:54;;;;;;;;;;;;;;;4.55;62.99;99322.85;1698769;83;20446;-78
2022/01/09 00:16:20;;;;;;;;;;;;;;;4.58;62.82;99331.23;1708708;82;20596;-80
2022/01/09 00:18:47;;;;;;;;;;;;;;;4.58;62.82;99331.23;1687921;83;20169;-76
2022/01/09 00:21:12;;;;;;;;;;;;;;;4.53;63.02;99328.22;1703249;83;20261;-77
2022/01/09 00:23:38;;;;;;;;;;;;;;;4.46;63.22;99317.98;1705272;82;21016;-75
2022/01/09 00:26:06;;;;;;;;;;;;;;;4.47;63.20;99317.00;1702929;83;20150;-75
2022/01/09 00:28:31;;;;;;;;;;;;;;;4.41;63.30;99311.02;1698241;81;20182;-76
2022/01/09 00:30:56;;;;;;;;;;;;;;;4.53;63.04;99313.84;1703444;83;20267;-78
2022/01/09 00:33:22;;;;;;;;;;;;;;;4.57;62.92;99311.77;1700823;83;20167;-77
2022/01/09 00:35:49;;;;;;;;;;;;;;;4.39;63.32;99313.77;1703481;81;21745;-79
2022/01/09 00:38:15;;;;;;;;;;;;;;;4.49;63.16;99308.56;1703932;83;20500;-79
2022/01/09 00:40:40;;;;;;;;;;;;;;;4.42;63.20;99304.34;1704336;83;20123;-77
2022/01/09 00:43:08;;;;;;;;;;;;;;;4.39;63.23;99302.50;1705600;81;20120;-80
2022/01/09 00:45:33;;;;;;;;;;;;;;;4.27;63.50;99302.64;1707606;81;20551;-79
2022/01/09 00:47:59;;;;;;;;;;;;;;;4.26;63.71;99298.36;1705513;83;21157;-74
2022/01/09 00:50:25;;;;;;;;;;;;;;;4.30;63.69;99293.22;1705604;82;20740;-75
2022/01/09 00:52:50;;;;;;;;;;;;;;;4.39;63.43;99296.78;1702085;82;20123;-79
2022/01/09 00:55:18;;;;;;;;;;;;;;;4.44;63.46;99300.28;1703600;83;20197;-76
2022/01/09 00:57:43;;;;;;;;;;;;;;;4.41;63.60;99300.56;1699543;83;20167;-75
2022/01/09 01:00:10;;;;;;;;;;;;;;;4.29;63.80;99294.66;1702816;83;21259;-77
2022/01/09 01:02:35;;;;;;;;;;;;;;;4.56;63.44;99288.72;1700998;82;20223;-75
2022/01/09 01:05:01;;;;;;;;;;;;;;;4.58;63.05;99292.02;1706156;83;21143;-75
2022/01/09 01:07:28;;;;;;;;;;;;;;;4.60;63.04;99281.42;1706476;82;20196;-81
2022/01/09 01:09:57;;;;;;;;;;;;;;;4.88;62.49;99278.44;1698147;83;20179;-76
2022/01/09 01:12:21;;;;;;;;;;;;;;;4.92;62.18;99268.02;1710067;83;20590;-78
2022/01/09 01:14:47;;;;;;;;;;;;;;;5.03;62.03;99270.95;1703744;81;20124;-76
2022/01/09 01:17:13;;;;;;;;;;;;;;;4.90;62.22;99264.72;1706658;81;20190;-76
2022/01/09 01:19:39;;;;;;;;;;;;;;;5.15;61.67;99259.83;1701986;82;20977;-80
2022/01/09 01:22:05;;;;;;;;;;;;;;;5.25;61.42;99259.33;1706706;81;20540;-77
2022/01/09 01:24:35;;;;;;;;;;;;;;;5.18;61.33;99255.63;1702305;82;21218;-76
2022/01/09 01:26:58;;;;;;;;;;;;;;;5.07;61.25;99251.39;1702401;82;20199;-75
2022/01/09 01:29:24;;;;;;;;;;;;;;;5.17;61.43;99257.89;1713684;81;20166;-79
2022/01/09 01:31:50;;;;;;;;;;;;;;;5.23;60.96;99246.84;1703694;82;20127;-80
2022/01/09 01:34:15;;;;;;;;;;;;;;;5.13;61.07;99251.31;1702793;83;20132;-75
2022/01/09 01:36:41;;;;;;;;;;;;;;;4.90;61.24;99256.06;1708242;81;21081;-79
2022/01/09 01:39:07;;;;;;;;;;;;;;;4.47;63.06;99256.41;1701205;83;20143;-79
2022/01/09 01:41:32;;;;;;;;;;;;;;;4.39;63.57;99247.11;1707798;81;20172;-82
2022/01/09 01:43:58;;;;;;;;;;;;;;;4.42;63.67;99247.33;1704415;83;20441;-77
2022/01/09 01:46:24;;;;;;;;;;;;;;;4.26;63.76;99244.78;1709582;82;20231;-75
2022/01/09 01:48:49;;;;;;;;;;;;;;;4.39;63.69;99235.84;1698306;83;21263;-76
2022/01/09 01:51:15;;;;;;;;;;;;;;;4.40;63.73;99240.12;1698602;83;20140;-79
2022/01/09 01:53:40;;;;;;;;;;;;;;;4.41;63.84;99233.44;1706575;83;20158;-75
2022/01/09 01:56:07;;;;;;;;;;;;;;;4.54;63.69;99227.91;1706474;81;20166;-76
2022/01/09 01:58:34;;;;;;;;;;;;;;;4.53;63.19;99232.79;1712027;81;20208;-77
2022/01/09 02:01:00;;;;;;;;;;;;;;;4.38;63.52;99229.80;1701815;81;20441;-80
2022/01/09 02:03:25;;;;;;;;;;;;;;;4.48;63.47;99225.86;1704899;83;20140;-76
2022/01/09 02:05:51;;;;;;;;;;;;;;;4.49;63.47;99217.06;1705587;83;21088;-76
2022/01/09 02:08:16;;;;;;;;;;;;;;;4.29;64.01;99224.91;1707029;81;20226;-76
2022/01/09 02:10:44;;;;;;;;;;;;;;;4.13;64.33;99225.94;1706200;83;20576;-77
2022/01/09 02:13:10;;;;;;;;;;;;;;;4.21;64.42;99220.87;1707808;83;21893;-77
2022/01/09 02:15:39;;;;;;;;;;;;;;;4.47;63.88;99218.97;1705907;83;20492;-78
2022/01/09 02:18:06;;;;;;;;;;;;;;;4.79;62.97;99213.89;1704691;82;20198;-78
2022/01/09 02:20:32;;;;;;;;;;;;;;;4.66;62.91;99207.18;1708248;83;20188;-78
2022/01/09 02:22:58;;;;;;;;;;;;;;;4.51;63.41;99202.05;1712262;82;20135;-77
2022/01/09 02:25:24;;;;;;;;;;;;;;;4.42;63.57;99202.39;1695084;83;21352;-82
2022/01/09 02:27:50;;;;;;;;;;;;;;;4.22;64.08;99196.36;1710626;81;20230;-76
2022/01/09 02:30:15;;;;;;;;;;;;;;;4.19;64.19;99192.72;1707306;81;20179;-78
2022/01/09 02:32:41;;;;;;;;;;;;;;;4.20;64.36;99189.65;1708942;83;20449;-78
2022/01/09 02:35:07;;;;;;;;;;;;;;;4.11;64.57;99192.59;1714909;81;20257;-75
2022/01/09 02:37:32;;;;;;;;;;;;;;;4.14;64.78;99185.80;1706217;83;22061;-78
2022/01/09 02:39:58;;;;;;;;;;;;;;;4.21;64.54;99179.05;1705653;83;20170;-75
2022/01/09 02:42:27;;;;;;;;;;;;;;;4.19;64.90;99178.35;1711054;83;20163;-75
2022/01/09 02:44:52;;;;;;;;;;;;;;;4.41;64.50;99179.02;1712312;81;20177;-75
2022/01/09 02:47:19;;;;;;;;;;;;;;;4.22;64.84;99176.77;1705151;83;20198;-80
2022/01/09 02:49:49;;;;;;;;;;;;;;;4.28;64.91;99173.59;1703699;81;21223;-75
2022/01/09 02:52:25;;;;;;;;;;;;;;;4.29;64.96;99171.83;1702270;83;20103;-75
2022/01/09 02:57:23;;;;;;;;;;;;;;;4.38;64.72;99164.91;1708495;81;20231;-75
2022/01/09 02:59:49;;;;;;;;;;;;;;;4.26;64.79;99167.70;1704145;81;20116;-74
2022/01/09 03:02:22;;;;;;;;;;;;;;;4.19;65.30;99158.75;1707207;83;21112;-74
2022/01/09 03:04:48;;;;;;;;;;;;;;;4.23;65.28;99154.91;1705460;81;20335;-78
2022/01/09 03:07:13;;;;;;;;;;;;;;;4.29;65.19;99153.04;1707248;83;20204;-76
2022/01/09 03:09:39;;;;;;;;;;;;;;;4.25;65.06;99150.36;1705430;82;20487;-79
2022/01/09 03:12:05;;;;;;;;;;;;;;;4.33;65.04;99144.43;1706009;83;20161;-75
2022/01/09 03:14:31;;;;;;;;;;;;;;;4.27;64.79;99143.69;1708640;83;21344;-75
2022/01/09 03:16:57;;;;;;;;;;;;;;;4.44;64.35;99140.83;1703058;83;20179;-75
2022/01/09 03:19:22;;;;;;;;;;;;;;;4.52;64.26;99140.12;1701521;83;20150;-75
2022/01/09 03:21:48;;;;;;;;;;;;;;;4.60;63.84;99146.30;1702432;83;20258;-77
2022/01/09 03:24:13;;;;;;;;;;;;;;;4.39;64.35;99149.59;1705119;83;20165;-78
2022/01/09 03:26:39;;;;;;;;;;;;;;;4.15;65.05;99144.34;1703785;81;21137;-77
2022/01/09 03:29:05;;;;;;;;;;;;;;;4.95;63.11;99142.64;1703209;83;20227;-76
2022/01/09 03:31:30;;;;;;;;;;;;;;;4.41;64.28;99137.19;1711979;82;20116;-76
2022/01/09 03:33:56;;;;;;;;;;;;;;;4.34;64.48;99145.27;1699515;83;20130;-75
2022/01/09 03:36:21;;;;;;;;;;;;;;;4.92;63.37;99146.86;1704986;83;20142;-75
2022/01/09 03:38:47;;;;;;;;;;;;;;;5.14;62.29;99157.42;1703741;83;21162;-76
2022/01/09 03:41:13;;;;;;;;;;;;;;;5.14;62.17;99153.49;1702109;83;20150;-75
2022/01/09 03:43:38;;;;;;;;;;;;;;;4.74;63.12;99149.39;1699640;83;20601;-80
2022/01/09 03:46:04;;;;;;;;;;;;;;;4.56;63.48;99143.61;1703676;81;20165;-75
2022/01/09 03:48:31;;;;;;;;;;;;;;;4.57;63.53;99151.81;1700130;83;20460;-75
2022/01/09 03:50:57;;;;;;;;;;;;;;;4.47;63.77;99157.53;1699556;83;21036;-75
2022/01/09 03:53:23;;;;;;;;;;;;;;;4.47;63.79;99162.30;1705229;81;20638;-77
2022/01/09 03:55:48;;;;;;;;;;;;;;;4.54;63.69;99153.40;1704165;83;20457;-79
2022/01/09 03:58:14;;;;;;;;;;;;;;;4.53;63.74;99155.66;1703580;83;20131;-75
2022/01/09 04:00:40;;;;;;;;;;;;;;;4.49;63.83;99147.78;1699749;83;20155;-75
2022/01/09 04:03:05;;;;;;;;;;;;;;;4.44;63.77;99159.12;1699849;81;21735;-76
2022/01/09 04:05:31;;;;;;;;;;;;;;;4.35;63.94;99154.74;1700624;83;20226;-77
2022/01/09 04:07:57;;;;;;;;;;;;;;;4.23;64.32;99158.83;1695940;83;20185;-75
2022/01/09 04:10:25;;;;;;;;;;;;;;;4.34;64.20;99155.73;1697339;81;20487;-79
2022/01/09 04:12:57;;;;;;;;;;;;;;;4.31;64.21;99153.71;1698907;83;20187;-79
2022/01/09 04:15:17;;;;;;;;;;;;;;;4.31;64.25;99156.33;1696048;83;20174;-78
2022/01/09 04:17:51;;;;;;;;;;;;;;;4.14;64.59;99160.97;1696267;83;20867;-78
2022/01/09 04:20:11;;;;;;;;;;;;;;;4.14;64.78;99150.52;1695976;81;20166;-76
2022/01/09 04:22:37;;;;;;;;;;;;;;;4.19;64.90;99152.72;1695785;83;20181;-78
2022/01/09 04:25:03;;;;;;;;;;;;;;;4.12;65.07;99151.97;1697575;83;20198;-76
2022/01/09 04:27:29;;;;;;;;;;;;;;;4.19;65.08;99154.83;1697301;83;21152;-75
2022/01/09 04:29:54;;;;;;;;;;;;;;;4.12;64.97;99151.97;1698615;83;20642;-76
2022/01/09 04:32:20;;;;;;;;;;;;;;;4.06;65.21;99155.63;1696906;83;20166;-76
2022/01/09 04:34:45;;;;;;;;;;;;;;;4.08;65.36;99153.69;1700727;83;20419;-76
2022/01/09 04:37:11;;;;;;;;;;;;;;;4.12;65.09;99156.38;1697672;83;20150;-76
2022/01/09 04:39:36;;;;;;;;;;;;;;;4.13;65.04;99159.31;1700146;83;21197;-80
2022/01/09 04:42:02;;;;;;;;;;;;;;;4.07;65.30;99155.48;1698640;83;20610;-78
2022/01/09 04:44:28;;;;;;;;;;;;;;;4.14;65.07;99150.52;1697103;83;20349;-78
2022/01/09 04:47:02;;;;;;;;;;;;;;;3.91;65.53;99148.19;1696435;83;20712;-76
2022/01/09 04:49:27;;;;;;;;;;;;;;;4.08;64.99;99148.46;1695174;83;20130;-78
2022/01/09 04:51:51;;;;;;;;;;;;;;;4.66;63.49;99146.19;1693864;83;20150;-77
2022/01/09 04:54:17;;;;;;;;;;;;;;;4.73;62.95;99145.97;1696537;83;20675;-77
2022/01/09 04:56:43;;;;;;;;;;;;;;;4.70;62.83;99148.05;1697559;83;20929;-76
2022/01/09 04:59:09;;;;;;;;;;;;;;;4.66;62.79;99143.11;1695265;83;20130;-76
2022/01/09 05:01:34;;;;;;;;;;;;;;;4.15;64.02;99137.81;1698119;83;20289;-79
2022/01/09 05:04:00;;;;;;;;;;;;;;;4.58;63.08;99137.75;1705752;81;21056;-75
2022/01/09 05:06:26;;;;;;;;;;;;;;;4.58;62.65;99137.75;1704015;83;20151;-79
2022/01/09 05:08:51;;;;;;;;;;;;;;;4.63;62.36;99136.86;1704890;83;20626;-75
2022/01/09 05:11:17;;;;;;;;;;;;;;;4.48;62.50;99127.82;1707161;81;20166;-75
2022/01/09 05:13:42;;;;;;;;;;;;;;;4.49;62.52;99129.48;1703657;83;20199;-78
2022/01/09 05:16:08;;;;;;;;;;;;;;;4.46;62.42;99129.27;1704194;83;21010;-78
2022/01/09 05:18:41;;;;;;;;;;;;;;;4.43;62.45;99126.13;1705533;81;20187;-77
2022/01/09 05:21:01;;;;;;;;;;;;;;;4.44;62.34;99130.38;1704968;81;20200;-75
2022/01/09 05:23:27;;;;;;;;;;;;;;;4.25;62.67;99128.14;1708738;82;20611;-77
2022/01/09 05:25:52;;;;;;;;;;;;;;;4.28;62.50;99123.94;1705692;83;20217;-77
2022/01/09 05:28:18;;;;;;;;;;;;;;;4.25;62.57;99124.22;1705175;83;21169;-79
2022/01/09 05:30:43;;;;;;;;;;;;;;;4.21;62.67;99121.57;1708793;81;20665;-75
2022/01/09 05:33:09;;;;;;;;;;;;;;;4.17;62.77;99129.34;1701191;81;20175;-76
2022/01/09 05:35:34;;;;;;;;;;;;;;;4.08;63.02;99129.68;1700661;83;20437;-76
2022/01/09 05:38:00;;;;;;;;;;;;;;;4.12;62.86;99128.94;1697746;83;20734;-76
2022/01/09 05:40:26;;;;;;;;;;;;;;;4.07;62.98;99124.14;1699618;83;21085;-79
2022/01/09 05:42:51;;;;;;;;;;;;;;;4.01;63.34;99127.30;1702782;81;20508;-75
2022/01/09 05:45:17;;;;;;;;;;;;;;;3.98;63.40;99121.52;1703548;83;20262;-75
2022/01/09 05:47:44;;;;;;;;;;;;;;;3.97;63.38;99122.50;1703984;83;20178;-76
2022/01/09 05:50:10;;;;;;;;;;;;;;;3.94;63.45;99121.79;1698559;83;20139;-80
2022/01/09 05:52:36;;;;;;;;;;;;;;;3.91;63.51;99124.68;1701235;83;20644;-79
2022/01/09 05:55:02;;;;;;;;;;;;;;;3.88;63.50;99117.13;1708226;83;20155;-76
2022/01/09 05:57:28;;;;;;;;;;;;;;;3.80;63.83;99118.80;1700027;81;20473;-76
2022/01/09 05:59:53;;;;;;;;;;;;;;;3.73;64.01;99116.73;1699910;83;20198;-78
2022/01/09 06:02:19;;;;;;;;;;;;;;;3.51;64.72;99115.23;1698092;83;20146;-79
2022/01/09 06:04:44;;;;;;;;;;;;;;;3.51;65.00;99111.31;1693206;83;21086;-77
2022/01/09 06:07:10;;;;;;;;;;;;;;;3.52;65.09;99110.33;1685812;83;20154;-77
2022/01/09 06:09:36;;;;;;;;;;;;;;;2.88;66.86;99107.20;1686655;83;20318;-76
2022/01/09 06:12:01;;;;;;;;;;;;;;;2.87;67.30;99108.63;1681824;83;20307;-77
2022/01/09 06:14:27;;;;;;;;;;;;;;;2.80;67.53;99110.14;1683451;83;20772;-80
2022/01/09 06:16:52;;;;;;;;;;;;;;;2.82;67.58;99109.03;1683604;83;21178;-79
2022/01/09 06:19:18;;;;;;;;;;;;;;;2.85;67.52;99107.46;1685932;83;20543;-77
2022/01/09 06:21:44;;;;;;;;;;;;;;;2.70;67.95;99107.48;1685470;83;20135;-77
2022/01/09 06:24:10;;;;;;;;;;;;;;;2.87;67.52;99115.16;1683972;83;20187;-76
2022/01/09 06:26:36;;;;;;;;;;;;;;;2.80;67.51;99113.56;1690638;83;20136;-79
2022/01/09 06:29:01;;;;;;;;;;;;;;;2.63;67.54;99107.19;1688826;83;21067;-79
2022/01/09 06:31:27;;;;;;;;;;;;;;;2.78;67.41;99104.21;1683330;83;20486;-76
2022/01/09 06:33:52;;;;;;;;;;;;;;;2.43;68.39;99108.87;1685550;83;20485;-77
2022/01/09 06:36:18;;;;;;;;;;;;;;;2.59;67.96;99101.06;1684488;83;20154;-77
2022/01/09 06:38:44;;;;;;;;;;;;;;;2.54;67.93;99104.55;1686228;83;20138;-76
2022/01/09 06:41:09;;;;;;;;;;;;;;;2.50;68.15;99103.50;1683481;83;21060;-76
2022/01/09 06:43:35;;;;;;;;;;;;;;;2.69;67.58;99099.33;1687308;83;20159;-76
2022/01/09 06:46:01;;;;;;;;;;;;;;;2.71;67.32;99099.20;1686456;83;20704;-77
2022/01/09 06:48:26;;;;;;;;;;;;;;;2.67;67.42;99105.12;1691660;83;20120;-76
2022/01/09 06:50:52;;;;;;;;;;;;;;;2.48;67.85;99106.70;1689967;83;20236;-80
2022/01/09 06:53:17;;;;;;;;;;;;;;;2.34;68.12;99114.86;1681569;83;21145;-84
2022/01/09 06:55:43;;;;;;;;;;;;;;;2.33;68.28;99111.44;1684536;83;20287;-79
2022/01/09 06:58:09;;;;;;;;;;;;;;;2.32;68.43;99111.57;1681525;83;20804;-80
2022/01/09 07:00:35;;;;;;;;;;;;;;;2.40;68.11;99113.05;1684501;83;21378;-78
2022/01/09 07:03:00;;;;;;;;;;;;;;;2.41;67.96;99116.00;1689579;82;20743;-79
2022/01/09 07:05:26;;;;;;;;;;;;;;;2.39;68.10;99112.69;1696829;83;21158;-76
2022/01/09 07:07:51;;;;;;;;;;;;;;;2.44;67.87;99119.66;1704910;82;20142;-76
2022/01/09 07:10:17;;;;;;;;;;;;;;;2.33;68.31;99127.07;1705301;83;20193;-76
2022/01/09 07:12:42;;;;;;;;;;;;;;;2.39;68.11;99123.11;1706374;83;20782;-76
2022/01/09 07:15:09;;;;;;;;;;;;;;;2.50;67.76;99115.23;1705426;83;20223;-77
2022/01/09 07:17:34;;;;;;;;;;;;;;;2.66;67.35;99116.53;1713081;83;22016;-77
2022/01/09 07:20:00;;;;;;;;;;;;;;;2.76;66.86;99122.59;1700451;83;20166;-77
2022/01/09 07:22:27;;;;;;;;;;;;;;;2.80;66.66;99126.59;1714210;82;20172;-75
2022/01/09 07:24:53;;;;;;;;;;;;;;;2.82;66.53;99123.86;1711226;82;20208;-76
2022/01/09 07:27:18;;;;;;;;;;;;;;;2.80;66.46;99123.98;1710808;81;20269;-79
2022/01/09 07:29:44;;;;;;;;;;;;;;;2.83;66.39;99122.42;1706571;81;21123;-79
2022/01/09 07:32:10;;;;;;;;;;;;;;;2.82;66.25;99120.77;1704527;83;20471;-77
2022/01/09 07:34:35;;;;;;;;;;;;;;;2.87;66.22;99119.06;1709781;81;20156;-76
2022/01/09 07:37:01;;;;;;;;;;;;;;;2.85;66.24;99124.41;1702406;83;20790;-79
2022/01/09 07:39:28;;;;;;;;;;;;;;;2.90;66.14;99116.68;1709853;83;20128;-76
2022/01/09 07:41:54;;;;;;;;;;;;;;;2.85;66.24;99121.80;1706005;83;21181;-75
2022/01/09 07:44:20;;;;;;;;;;;;;;;2.80;66.06;99126.59;1709041;81;20147;-79
2022/01/09 07:46:46;;;;;;;;;;;;;;;2.76;66.85;99126.50;1708473;83;20325;-80
2022/01/09 07:49:11;;;;;;;;;;;;;;;2.72;66.84;99125.59;1706909;83;20112;-77
2022/01/09 07:51:37;;;;;;;;;;;;;;;2.47;67.35;99125.06;1710797;83;20146;-77
2022/01/09 07:54:02;;;;;;;;;;;;;;;2.51;67.55;99129.89;1708965;82;21190;-74
2022/01/09 07:56:28;;;;;;;;;;;;;;;2.64;67.35;99132.30;1705731;82;20165;-78
2022/01/09 07:58:54;;;;;;;;;;;;;;;3.10;65.83;99137.13;1700851;83;20210;-80
2022/01/09 08:01:19;;;;;;;;;;;;;;;3.23;65.15;99128.09;1707102;83;20210;-78
2022/01/09 08:03:45;;;;;;;;;;;;;;;2.88;66.14;99125.45;1702921;83;20614;-82
2022/01/09 08:06:10;;;;;;;;;;;;;;;3.27;65.62;99127.83;1687497;83;21176;-82
2022/01/09 08:08:36;;;;;;;;;;;;;;;3.62;64.22;99123.87;1687675;83;20202;-77
2022/01/09 08:11:02;;;;;;;;;;;;;;;3.66;63.62;99122.64;1688557;84;20442;-76
2022/01/09 08:13:27;;;;;;;;;;;;;;;3.65;63.42;99126.20;1684422;84;20135;-77
2022/01/09 08:15:53;;;;;;;;;;;;;;;3.03;64.71;99119.39;1692111;84;20163;-76
2022/01/09 08:18:18;;;;;;;;;;;;;;;2.89;65.48;99126.30;1688897;83;21096;-79
2022/01/09 08:20:44;;;;;;;;;;;;;;;2.74;66.18;99125.00;1685079;84;20622;-80
2022/01/09 08:23:09;;;;;;;;;;;;;;;2.75;66.31;99122.27;1685569;84;20129;-77
2022/01/09 08:25:35;;;;;;;;;;;;;;;2.65;66.57;99130.02;1689721;84;20373;-76
2022/01/09 08:28:01;;;;;;;;;;;;;;;2.64;66.74;99131.00;1685752;84;20460;-76
2022/01/09 08:30:26;;;;;;;;;;;;;;;2.87;66.29;99135.55;1682820;84;21080;-81
2022/01/09 08:32:52;;;;;;;;;;;;;;;2.93;66.32;99139.88;1680974;84;20179;-79
2022/01/09 08:35:18;;;;;;;;;;;;;;;2.62;66.88;99139.89;1682821;84;20151;-81
2022/01/09 08:37:44;;;;;;;;;;;;;;;2.91;66.64;99139.20;1685146;84;20861;-77
2022/01/09 08:40:13;;;;;;;;;;;;;;;3.02;66.40;99140.39;1682544;84;20175;-76
2022/01/09 08:42:39;;;;;;;;;;;;;;;3.00;66.39;99138.41;1686301;83;21102;-79
2022/01/09 08:45:06;;;;;;;;;;;;;;;3.09;66.32;99140.19;1683201;83;20535;-76
2022/01/09 08:47:35;;;;;;;;;;;;;;;3.04;66.47;99141.08;1687564;83;20331;-75
2022/01/09 08:49:59;;;;;;;;;;;;;;;3.18;66.27;99143.30;1687451;84;20560;-76
2022/01/09 08:52:24;;;;;;;;;;;;;;;3.78;64.61;99135.91;1683485;83;20479;-76
2022/01/09 08:54:51;;;;;;;;;;;;;;;3.93;64.13;99134.53;1683908;84;21092;-77
2022/01/09 08:57:17;;;;;;;;;;;;;;;3.91;64.01;99139.05;1685806;84;20486;-75
2022/01/09 08:59:42;;;;;;;;;;;;;;;3.90;64.35;99140.48;1682410;84;20155;-77
2022/01/09 09:02:08;;;;;;;;;;;;;;;3.90;64.41;99135.27;1687901;84;20202;-81
2022/01/09 09:04:33;;;;;;;;;;;;;;;4.07;64.19;99136.35;1681986;84;20247;-79
2022/01/09 09:06:59;;;;;;;;;;;;;;;4.13;64.13;99136.64;1686956;83;21242;-81
2022/01/09 09:09:25;;;;;;;;;;;;;;;4.10;64.26;99140.84;1683127;84;20168;-78
2022/01/09 09:11:50;;;;;;;;;;;;;;;4.30;63.79;99136.87;1687851;83;20215;-77
2022/01/09 09:14:17;;;;;;;;;;;;;;;4.36;63.69;99139.41;1687581;84;20471;-80
2022/01/09 09:16:43;;;;;;;;;;;;;;;4.39;63.70;99145.66;1686616;83;20228;-75
2022/01/09 09:19:08;;;;;;;;;;;;;;;4.42;63.70;99137.54;1682901;84;21009;-77
2022/01/09 09:21:34;;;;;;;;;;;;;;;4.01;64.55;99141.67;1688354;84;20363;-79
2022/01/09 09:23:59;;;;;;;;;;;;;;;3.97;65.26;99142.09;1687394;83;20184;-79
2022/01/09 09:26:25;;;;;;;;;;;;;;;3.79;65.47;99140.15;1685440;83;20567;-79
2022/01/09 09:28:51;;;;;;;;;;;;;;;3.83;66.01;99147.25;1684308;83;20234;-82
2022/01/09 09:31:17;;;;;;;;;;;;;;;3.93;65.72;99143.67;1683571;84;21159;-78
2022/01/09 09:33:42;;;;;;;;;;;;;;;4.00;65.97;99143.12;1685147;83;20128;-78
2022/01/09 09:36:08;;;;;;;;;;;;;;;4.00;66.02;99143.12;1688848;84;20216;-82
2022/01/09 09:38:33;;;;;;;;;;;;;;;4.07;66.14;99136.35;1688176;84;20175;-78
2022/01/09 09:40:59;;;;;;;;;;;;;;;4.08;66.16;99138.02;1685844;84;20180;-80
2022/01/09 09:43:25;;;;;;;;;;;;;;;4.14;66.13;99129.62;1685102;84;21156;-77
2022/01/09 09:45:51;;;;;;;;;;;;;;;4.66;64.78;99137.03;1682986;84;20155;-77
2022/01/09 09:48:17;;;;;;;;;;;;;;;4.77;64.53;99136.88;1688846;83;20251;-79
2022/01/09 09:50:42;;;;;;;;;;;;;;;4.78;64.16;99140.31;1686608;84;20209;-77
2022/01/09 09:53:08;;;;;;;;;;;;;;;4.50;65.39;99133.72;1690503;84;20390;-76
2022/01/09 09:55:33;;;;;;;;;;;;;;;4.58;65.44;99137.75;1688238;84;21193;-82
2022/01/09 09:57:59;;;;;;;;;;;;;;;4.55;65.30;99135.42;1687366;84;20156;-77
2022/01/09 10:00:25;;;;;;;;;;;;;;;4.46;65.35;99133.69;1693368;83;20138;-78
2022/01/09 10:02:52;;;;;;;;;;;;;;;4.63;65.25;99133.40;1689794;83;20135;-76
2022/01/09 10:05:20;;;;;;;;;;;;;;;4.68;65.09;99140.35;1689897;83;20192;-82
2022/01/09 10:07:45;;;;;;;;;;;;;;;4.73;64.96;99134.20;1706486;81;21060;-78
2022/01/09 10:10:18;;;;;;;;;;;;;;;4.70;64.84;99141.52;1703678;82;20163;-76
2022/01/09 10:12:45;;;;;;;;;;;;;;;4.49;65.22;99134.71;1708386;83;20203;-78
2022/01/09 10:15:13;;;;;;;;;;;;;;;4.58;65.19;99137.75;1702678;83;20133;-77
2022/01/09 10:17:43;;;;;;;;;;;;;;;4.53;65.11;99129.52;1703672;81;20152;-77
2022/01/09 10:20:19;;;;;;;;;;;;;;;4.62;65.06;99123.44;1701812;83;21961;-76
2022/01/09 10:22:47;;;;;;;;;;;;;;;4.66;65.24;99121.34;1705666;83;20081;-76
2022/01/09 10:25:30;;;;;;;;;;;;;;;4.64;64.76;99122.80;1703634;81;20127;-77
2022/01/09 10:28:01;;;;;;;;;;;;;;;4.68;64.83;99123.36;1703004;83;20218;-75
2022/01/09 10:30:45;;;;;;;;;;;;;;;4.61;65.01;99123.58;1695966;83;20349;-75
2022/01/09 10:33:13;;;;;;;;;;;;;;;4.72;64.93;99125.19;1699617;83;20853;-78
2022/01/09 10:35:40;;;;;;;;;;;;;;;4.78;64.60;99119.38;1704975;83;20252;-77
2022/01/09 10:38:16;;;;;;;;;;;;;;;4.85;64.25;99120.47;1704311;82;20176;-75
2022/01/09 10:40:44;;;;;;;;;;;;;;;4.88;64.16;99120.17;1699755;83;20188;-78
2022/01/09 10:43:19;;;;;;;;;;;;;;;4.86;64.57;99119.47;1705636;83;20212;-80
2022/01/09 10:45:59;;;;;;;;;;;;;;;4.91;64.71;99117.27;1698502;83;21177;-77
2022/01/09 10:48:39;;;;;;;;;;;;;;;4.99;64.53;99112.13;1665161;83;39420;-79
2022/01/09 10:51:07;;;;;;;;;;;;;;;4.91;64.59;99112.04;1704606;81;20228;-78
2022/01/09 10:53:38;;;;;;;;;;;;;;;5.28;63.73;99113.73;1702197;83;20800;-79
2022/01/09 10:56:09;;;;;;;;;;;;;;;5.10;64.42;99116.83;1701225;81;20176;-78
2022/01/09 10:58:37;;;;;;;;;;;;;;;5.09;64.66;99108.63;1701165;83;21175;-77
2022/01/09 11:01:17;;;;;;;;;;;;;;;5.16;64.24;99107.08;1702354;83;20215;-77
2022/01/09 11:03:45;;;;;;;;;;;;;;;4.96;64.56;99107.18;1701519;83;20147;-80
2022/01/09 11:06:11;;;;;;;;;;;;;;;5.04;64.79;99103.84;1701640;83;20769;-79
2022/01/09 11:08:37;;;;;;;;;;;;;;;5.10;64.76;99099.82;1699380;82;20179;-79
2022/01/09 11:11:06;;;;;;;;;;;;;;;5.09;64.74;99098.16;1705235;81;21078;-80
2022/01/09 11:13:30;;;;;;;;;;;;;;;5.02;65.05;99097.44;1708180;83;20191;-83
2022/01/09 11:18:40;;;;;;;;;;;;;;;5.12;64.78;99090.02;1704042;81;20315;-77
2022/01/09 11:21:06;;;;;;;;;;;;;;;4.97;65.21;99087.91;1706727;83;20194;-83
2022/01/09 11:24:08;;;;;;;;;;;;;;;4.97;65.43;99081.38;1704133;83;21145;-78
2022/01/09 11:26:46;;;;;;;;;;;;;;;5.16;64.94;99075.68;1706734;83;21687;-77
2022/01/09 11:29:12;;;;;;;;;;;;;;;5.16;64.97;99075.68;1704137;81;20229;-82
2022/01/09 11:32:08;;;;;;;;;;;;;;;5.23;64.82;99084.56;1701838;81;20747;-78
2022/01/09 11:34:40;;;;;;;;;;;;;;;5.30;64.62;99080.86;1697781;83;20162;-78
2022/01/09 11:37:22;;;;;;;;;;;;;;;5.36;64.46;99083.73;1700659;83;21115;-78
2022/01/09 11:39:47;;;;;;;;;;;;;;;5.36;64.48;99075.88;1692785;81;20254;-81
2022/01/09 11:42:14;;;;;;;;;;;;;;;5.38;64.37;99069.99;1699820;83;20497;-78
2022/01/09 11:44:51;;;;;;;;;;;;;;;5.33;64.52;99074.86;1703142;83;20678;-78
2022/01/09 11:47:16;;;;;;;;;;;;;;;5.13;64.97;99066.81;1702335;83;20151;-77
2022/01/09 11:49:56;;;;;;;;;;;;;;;5.18;64.99;99068.49;1706205;81;21466;-78
2022/01/09 11:52:26;;;;;;;;;;;;;;;5.30;64.85;99069.92;1709275;81;20279;-79
2022/01/09 11:55:00;;;;;;;;;;;;;;;5.36;64.66;99069.33;1702528;81;20174;-83
2022/01/09 11:57:49;;;;;;;;;;;;;;;5.39;64.71;99066.41;1701059;83;20243;-77
2022/01/09 12:00:32;;;;;;;;;;;;;;;5.36;64.68;99069.33;1705961;83;20481;-78
2022/01/09 12:02:58;;;;;;;;;;;;;;;5.31;64.83;99074.66;1702616;83;21000;-77
2022/01/09 12:05:23;;;;;;;;;;;;;;;5.25;64.50;99074.80;1703998;83;20192;-77
2022/01/09 12:07:53;;;;;;;;;;;;;;;5.36;64.42;99075.88;1706834;83;20186;-78
2022/01/09 12:10:30;;;;;;;;;;;;;;;5.31;64.30;99072.86;1703137;83;20446;-77
2022/01/09 12:12:56;;;;;;;;;;;;;;;5.34;64.21;99070.44;1705578;81;20583;-77
2022/01/09 12:15:42;;;;;;;;;;;;;;;5.36;64.17;99071.95;1711478;82;21095;-78
2022/01/09 12:18:10;;;;;;;;;;;;;;;5.36;63.78;99078.49;1705875;83;20224;-76
2022/01/09 12:20:40;;;;;;;;;;;;;;;5.32;63.90;99077.63;1699663;83;20136;-78
2022/01/09 12:23:06;;;;;;;;;;;;;;;5.39;63.25;99067.72;1709855;82;20180;-79
2022/01/09 12:25:39;;;;;;;;;;;;;;;5.50;62.83;99075.00;1697423;83;20635;-77
2022/01/09 12:28:15;;;;;;;;;;;;;;;5.58;62.27;99069.85;1702250;81;21108;-84
2022/01/09 12:30:47;;;;;;;;;;;;;;;5.66;61.80;99071.22;1700753;83;20763;-77
2022/01/09 12:33:26;;;;;;;;;;;;;;;5.61;61.65;99073.95;1702585;82;20211;-77
2022/01/09 12:36:03;;;;;;;;;;;;;;;5.73;61.58;99070.12;1705830;81;20140;-75
2022/01/09 12:38:31;;;;;;;;;;;;;;;5.80;61.00;99070.36;1701734;83;20958;-82
2022/01/09 12:40:58;;;;;;;;;;;;;;;5.87;60.49;99076.61;1701665;81;21149;-79
2022/01/09 12:43:24;;;;;;;;;;;;;;;5.87;60.57;99077.45;1707403;83;20218;-78
2022/01/09 12:45:50;;;;;;;;;;;;;;;5.76;60.18;99075.06;1702946;83;20198;-78
2022/01/09 12:48:25;;;;;;;;;;;;;;;5.86;60.31;99074.98;1705958;81;20409;-80
2022/01/09 12:50:50;;;;;;;;;;;;;;;5.91;59.94;99075.34;1697079;83;20466;-79
2022/01/09 12:53:28;;;;;;;;;;;;;;;5.68;60.11;99079.74;1703654;81;21135;-81
2022/01/09 12:55:57;;;;;;;;;;;;;;;5.93;60.20;99086.02;1701551;83;20279;-76
2022/01/09 12:58:25;;;;;;;;;;;;;;;5.89;59.60;99089.09;1700221;83;20207;-82
2022/01/09 13:00:51;;;;;;;;;;;;;;;6.03;60.08;99089.88;1702234;82;20453;-78
2022/01/09 13:03:21;;;;;;;;;;;;;;;6.08;59.53;99082.37;1703574;83;20720;-83